KI4LFI Weather Reports


time (UTC)temp
F
wind
direction
speed
knots
gust
knots
rain 1hr
in
rain 24hr
in
rain mn
in
humidity
%
barometer
mb
20211017153040 62 349 4.3 9.6 0.00 0.00 0.00 57 1022.7
20211017151603 62 219 4.3 10.4 0.00 0.00 0.00 61 1023.0
20211017150223 61 19 3.5 12.2 0.00 0.00 0.00 60 1023.0
20211017144556 60 55 5.2 13.0 0.00 0.00 0.00 58 1023.0
20211017143057 59 1 3.5 8.7 0.00 0.00 0.00 67 1022.8
20211017141606 58 304 0.9 6.1 0.00 0.00 0.00 73 1023.0
20211017140041 56 312 1.7 8.7 0.00 0.00 0.00 73 1022.9
20211017134743 55 347 1.7 7.8 0.00 0.00 0.00 79 1022.9
20211017133116 53 0 0.0 2.6 0.00 0.00 0.00 84 1022.6
20211017131602 50 0 0.0 2.6 0.00 0.00 0.00 89 1022.6
20211017130042 47 0 0.0 0.9 0.00 0.00 0.00 97 1022.4
20211017124627 44 0 0.0 0.0 0.00 0.00 0.00 98 1022.2
20211017123141 44 0 0.0 0.0 0.00 0.00 0.00 97 1022.0
20211017121559 43 0 0.0 0.0 0.00 0.00 0.00 97 1021.9
20211017120055 43 0 0.0 0.0 0.00 0.00 0.00 97 1021.8
20211017114556 43 0 0.0 0.0 0.00 0.00 0.00 97 1021.6
20211017113045 44 0 0.0 0.0 0.00 0.00 0.00 96 1021.4
20211017111540 44 0 0.0 0.0 0.00 0.00 0.00 96 1021.3
20211017110107 44 0 0.0 0.0 0.00 0.00 0.00 96 1021.3
20211017104539 44 0 0.0 0.0 0.00 0.00 0.00 96 1021.3
20211017103045 44 0 0.0 0.0 0.00 0.00 0.00 97 1021.0
20211017101539 44 0 0.0 0.0 0.00 0.00 0.00 97 1020.9
20211017100049 44 0 0.0 0.0 0.00 0.00 0.00 96 1020.9
20211017094614 44 0 0.0 0.0 0.00 0.00 0.00 96 1020.9
20211017093039 45 0 0.0 0.0 0.00 0.00 0.00 94 1020.8
20211017091606 45 0 0.0 0.0 0.00 0.00 0.00 94 1020.7
20211017090112 46 0 0.0 0.0 0.00 0.00 0.00 93 1020.7
20211017084611 46 0 0.0 0.0 0.00 0.00 0.00 92 1020.6
20211017083103 47 0 0.0 0.0 0.00 0.00 0.00 90 1020.7
20211017081603 48 0 0.0 0.9 0.00 0.00 0.00 90 1020.6
20211017080244 48 0 0.0 0.0 0.00 0.00 0.00 89 1020.4
20211017074552 49 0 0.0 0.9 0.00 0.00 0.00 89 1020.4
20211017073112 49 0 0.0 1.7 0.00 0.00 0.00 89 1020.4
20211017071600 48 0 0.0 0.9 0.00 0.00 0.00 90 1020.6
20211017070108 48 0 0.0 0.9 0.00 0.00 0.00 90 1020.8
20211017064632 48 0 0.0 0.9 0.00 0.00 0.00 90 1020.9
20211017063035 49 0 0.0 1.7 0.00 0.00 0.00 90 1020.8
20211017061536 49 0 0.0 0.9 0.00 0.00 0.00 90 1020.9
20211017060051 49 0 0.0 0.0 0.00 0.00 0.00 88 1021.0
20211017054539 50 0 0.0 0.0 0.00 0.00 0.00 86 1021.0
20211017053050 51 0 0.0 0.0 0.00 0.00 0.00 84 1021.1
20211017051600 51 0 0.0 0.9 0.00 0.00 0.00 84 1021.0
20211017050038 53 0 0.0 0.9 0.00 0.00 0.00 81 1020.9
20211017044559 54 0 0.0 1.7 0.00 0.00 0.00 80 1021.0
20211017043048 54 30 1.7 4.3 0.00 0.00 0.00 80 1020.9
20211017041625 54 349 0.9 4.3 0.00 0.00 0.00 81 1020.9
20211017040033 54 309 0.0 2.6 0.00 0.00 0.00 81 1020.8
20211017034613 54 313 0.0 1.7 0.00 0.00 0.00 80 1020.6
20211017033036 55 0 0.0 2.6 0.00 0.00 0.00 78 1020.6
20211017031606 56 11 0.0 2.6 0.00 0.00 0.00 77 1020.5
20211017030112 56 8 0.9 4.3 0.00 0.00 0.00 76 1020.6
20211017024613 56 340 0.9 3.5 0.00 0.00 0.00 76 1020.5
20211017023051 57 0 0.0 2.6 0.00 0.00 0.00 78 1020.3
20211017021730 58 298 0.0 3.5 0.00 0.00 0.00 75 1020.1
20211017020116 58 335 0.9 4.3 0.00 0.00 0.00 75 1019.8
20211017014656 58 9 1.7 4.3 0.00 0.00 0.00 75 1019.6
20211017013110 58 5 0.9 2.6 0.00 0.00 0.00 76 1019.6
20211017011631 59 232 0.0 1.7 0.00 0.00 0.00 77 1019.4
20211017010100 60 0 0.0 2.6 0.00 0.00 0.00 74 1019.3
20211017004539 61 1 0.9 3.5 0.00 0.00 0.00 73 1019.2
20211017003046 61 345 1.7 5.2 0.00 0.00 0.00 71 1019.1
20211017001544 61 318 1.7 6.1 0.00 0.00 0.00 72 1018.7
20211017000107 62 303 0.9 3.5 0.00 0.00 0.00 74 1018.5
20211016234537 63 21 0.9 3.5 0.00 0.00 0.00 72 1018.2
20211016233100 64 340 0.9 2.6 0.00 0.00 0.00 70 1018.0
20211016231604 65 20 0.9 5.2 0.00 0.00 0.00 68 1017.8
20211016230051 66 311 0.9 9.6 0.00 0.00 0.00 65 1017.5
20211016224552 67 270 2.6 7.8 0.00 0.00 0.00 64 1017.3
20211016223048 68 337 2.6 9.6 0.00 0.00 0.00 64 1017.2
20211016221552 69 31 2.6 7.0 0.00 0.00 0.00 63 1017.0
20211016220121 70 309 2.6 11.3 0.00 0.00 0.00 61 1016.7
20211016214633 71 39 3.5 8.7 0.00 0.00 0.00 61 1016.5
20211016213048 71 18 2.6 11.3 0.00 0.00 0.00 58 1016.6
20211016211555 71 10 4.3 10.4 0.00 0.00 0.00 59 1016.6
20211016210111 72 307 5.2 13.0 0.00 0.00 0.00 61 1016.5
20211016204624 72 345 1.7 7.0 0.00 0.00 0.00 62 1016.7
20211016203142 72 321 4.3 8.7 0.00 0.00 0.00 60 1016.6
20211016201630 72 288 4.3 13.9 0.00 0.00 0.00 60 1016.3
20211016200105 72 1 4.3 10.4 0.00 0.00 0.00 62 1016.3
20211016194608 72 321 4.3 13.0 0.00 0.00 0.00 63 1016.4
20211016193046 72 291 3.5 13.9 0.00 0.00 0.00 64 1016.3
20211016191612 72 352 2.6 13.9 0.00 0.00 0.00 65 1016.2
20211016190103 71 18 5.2 11.3 0.00 0.00 0.00 66 1016.2
20211016184556 71 293 3.5 11.3 0.00 0.00 0.00 68 1016.4
20211016183122 70 311 3.5 11.3 0.00 0.00 0.00 69 1016.6
20211016181606 70 276 3.5 7.8 0.00 0.00 0.00 71 1016.7
20211016180102 69 347 5.2 13.0 0.00 0.00 0.00 75 1017.0
20211016174552 68 356 5.2 10.4 0.00 0.00 0.00 79 1017.2
20211016173140 67 4 4.3 10.4 0.00 0.00 0.00 83 1017.4
20211016171607 66 20 2.6 9.6 0.00 0.00 0.00 88 1017.5
20211016170102 66 355 3.5 8.7 0.00 0.00 0.00 90 1017.5
20211016164608 66 0 1.7 7.8 0.00 0.00 0.00 90 1017.7
20211016163132 67 341 2.6 7.8 0.00 0.00 0.00 88 1017.7
20211016161615 68 282 1.7 9.6 0.00 0.00 0.00 88 1017.7
20211016160125 70 44 1.7 7.0 0.00 0.00 0.00 86 1017.6
20211016154606 72 342 3.5 10.4 0.00 0.00 0.00 86 1017.2